Terminal Aerodrome Forecast
Issued by NWS

Home | Current Version | Previous Version | Text Only | Print | Product List | Glossary Off
Versions: 1 2 3 4 5 6 7 8 9 10 11 12

626
FTUS45 KGGW 191720
TAFSDY
TAF
KSDY 191720Z 1918/2018 20011KT P6SM FEW250
     FM200000 15005KT P6SM FEW200=

USA.gov is the U.S. government's official web portal to all federal, state and local government web resources and services.